Station Historical Data
Daily Summary for April 14, 2017 Units:  English    Metric   Both
« Previous Day
Next Day »
Daily Weekly Monthly Yearly Custom
  High: Low: Average:
Temperature: 65.6 °F 35.5 °F 51.7 °F
Dew Point: 34.1 °F 26.4 °F 30.1 °F
Humidity: 79% 24% 47%
Wind Speed: 13.0mph 0.0mph 3mph
Wind Gust: 15.0mph - -
Wind- - ENE
Pressure: 30.43 in 30.28 in -
Precipitation: 0.00 in    
Historical Graphs
 
 
Tabular Data for April 14, 2017
Time Temperature Dew Point Pressure Wind Wind Speed Wind Gust Humidity Rainfall Rate (Hourly)
00:09 40.9 °F 29.3 °F 30.42 in Calm     63% 0.00 in
00:14 41.1 °F 29.5 °F 30.42 in Calm     63% 0.00 in
00:19 41.5 °F 29.4 °F 30.42 in Calm     62% 0.00 in
00:24 42.0 °F 29.1 °F 30.42 in Calm     60% 0.00 in
00:29 42.0 °F 29.5 °F 30.42 in Calm     61% 0.00 in
00:34 42.1 °F 29.6 °F 30.42 in Calm     61% 0.00 in
00:39 42.2 °F 30.1 °F 30.42 in Calm     62% 0.00 in
00:44 42.2 °F 29.7 °F 30.42 in Calm     61% 0.00 in
00:49 42.5 °F 29.2 °F 30.42 in Calm     59% 0.00 in
00:54 42.8 °F 29.5 °F 30.42 in Calm     59% 0.00 in
00:59 42.9 °F 30.0 °F 30.42 in Calm     60% 0.00 in
01:04 42.9 °F 30.0 °F 30.42 in Calm     60% 0.00 in
01:09 42.7 °F 30.2 °F 30.42 in Calm     61% 0.00 in
01:14 42.8 °F 30.7 °F 30.41 in ENE 1.0 mph 3.0 mph 62% 0.00 in
01:19 42.8 °F 30.7 °F 30.41 in ENE 1.0 mph 3.0 mph 62% 0.00 in
01:24 42.8 °F 30.3 °F 30.41 in Calm   2.0 mph 61% 0.00 in
01:34 42.3 °F 30.6 °F 30.41 in Calm     63% 0.00 in
01:39 42.2 °F 30.5 °F 30.41 in Calm   1.0 mph 63% 0.00 in
01:44 42.0 °F 30.3 °F 30.41 in ENE 1.0 mph 2.0 mph 63% 0.00 in
01:49 41.6 °F 30.7 °F 30.41 in Calm   1.0 mph 65% 0.00 in
01:54 41.2 °F 30.3 °F 30.41 in Calm   1.0 mph 65% 0.00 in
01:59 41.1 °F 30.6 °F 30.41 in Calm   1.0 mph 66% 0.00 in
02:04 40.8 °F 30.7 °F 30.41 in Calm     67% 0.00 in
02:09 40.6 °F 30.9 °F 30.40 in ENE 3.0 mph 3.0 mph 68% 0.00 in
02:14 40.5 °F 30.8 °F 30.40 in Calm   3.0 mph 68% 0.00 in
02:19 40.6 °F 30.9 °F 30.40 in Calm   1.0 mph 68% 0.00 in
02:24 40.3 °F 30.9 °F 30.40 in Calm     69% 0.00 in
02:29 40.4 °F 31.0 °F 30.40 in Calm     69% 0.00 in
02:34 40.3 °F 30.9 °F 30.40 in Calm     69% 0.00 in
02:39 40.0 °F 30.6 °F 30.40 in Calm     69% 0.00 in
02:44 39.8 °F 30.8 °F 30.40 in Calm     70% 0.00 in
02:54 39.5 °F 31.2 °F 30.40 in Calm     72% 0.00 in
02:59 39.5 °F 31.2 °F 30.40 in Calm     72% 0.00 in
03:09 39.6 °F 31.3 °F 30.40 in Calm     72% 0.00 in
03:14 39.6 °F 31.3 °F 30.40 in Calm     72% 0.00 in
03:19 39.6 °F 31.7 °F 30.40 in Calm     73% 0.00 in
03:24 39.6 °F 31.3 °F 30.40 in NE 1.0 mph 2.0 mph 72% 0.00 in
03:29 39.4 °F 31.1 °F 30.39 in Calm   2.0 mph 72% 0.00 in
03:34 39.2 °F 30.9 °F 30.40 in Calm   2.0 mph 72% 0.00 in
03:39 39.1 °F 30.8 °F 30.40 in Calm   2.0 mph 72% 0.00 in
03:44 38.7 °F 30.8 °F 30.40 in Calm     73% 0.00 in
03:49 38.3 °F 30.4 °F 30.40 in Calm     73% 0.00 in
03:54 38.2 °F 30.3 °F 30.40 in Calm     73% 0.00 in
03:59 38.4 °F 30.8 °F 30.40 in Calm     74% 0.00 in
04:04 38.3 °F 30.4 °F 30.40 in Calm     73% 0.00 in
04:09 37.8 °F 30.3 °F 30.40 in Calm     74% 0.00 in
04:14 37.7 °F 30.2 °F 30.40 in Calm     74% 0.00 in
04:19 37.4 °F 29.9 °F 30.40 in Calm     74% 0.00 in
04:24 37.1 °F 29.9 °F 30.40 in Calm     75% 0.00 in
04:29 37.2 °F 30.0 °F 30.40 in Calm     75% 0.00 in
04:34 37.1 °F 29.9 °F 30.40 in Calm     75% 0.00 in
04:39 36.6 °F 29.4 °F 30.40 in Calm     75% 0.00 in
04:44 36.2 °F 29.4 °F 30.40 in Calm     76% 0.00 in
04:49 36.1 °F 29.6 °F 30.40 in Calm     77% 0.00 in
04:54 36.1 °F 29.6 °F 30.40 in Calm     77% 0.00 in
04:59 36.0 °F 29.5 °F 30.40 in Calm     77% 0.00 in
05:04 35.9 °F 29.4 °F 30.40 in Calm     77% 0.00 in
05:09 35.6 °F 29.1 °F 30.40 in Calm     77% 0.00 in
05:14 35.5 °F 29.3 °F 30.41 in Calm     78% 0.00 in
05:19 35.7 °F 29.5 °F 30.40 in Calm     78% 0.00 in
05:29 35.7 °F 29.5 °F 30.40 in Calm     78% 0.00 in
05:34 35.7 °F 29.8 °F 30.40 in Calm     79% 0.00 in
05:39 36.4 °F 30.2 °F 30.40 in Calm     78% 0.00 in
05:44 37.0 °F 30.5 °F 30.40 in Calm     77% 0.00 in
05:49 37.7 °F 30.8 °F 30.40 in Calm     76% 0.00 in
05:54 38.1 °F 30.9 °F 30.41 in Calm     75% 0.00 in
05:59 38.5 °F 30.9 °F 30.41 in Calm     74% 0.00 in
06:04 38.8 °F 30.9 °F 30.41 in Calm     73% 0.00 in
06:09 39.1 °F 30.8 °F 30.41 in East 2.0 mph 3.0 mph 72% 0.00 in
06:14 39.3 °F 31.0 °F 30.41 in Calm   3.0 mph 72% 0.00 in
06:19 39.3 °F 31.0 °F 30.41 in Calm   2.0 mph 72% 0.00 in
06:24 39.4 °F 30.8 °F 30.41 in Calm   3.0 mph 71% 0.00 in
06:29 39.4 °F 31.1 °F 30.41 in East 1.0 mph 3.0 mph 72% 0.00 in
06:34 39.3 °F 31.0 °F 30.41 in East 1.0 mph 3.0 mph 72% 0.00 in
06:39 39.2 °F 30.9 °F 30.41 in East 1.0 mph 3.0 mph 72% 0.00 in
06:44 39.1 °F 31.2 °F 30.41 in Calm   2.0 mph 73% 0.00 in
06:49 39.2 °F 31.3 °F 30.42 in Calm   3.0 mph 73% 0.00 in
06:54 39.3 °F 31.4 °F 30.42 in East 1.0 mph 2.0 mph 73% 0.00 in
06:59 39.4 °F 31.5 °F 30.42 in Calm   2.0 mph 73% 0.00 in
07:04 39.5 °F 31.6 °F 30.42 in ESE 2.0 mph 2.0 mph 73% 0.00 in
07:09 39.7 °F 31.8 °F 30.43 in Calm   2.0 mph 73% 0.00 in
07:14 39.9 °F 31.6 °F 30.43 in ESE 1.0 mph 1.0 mph 72% 0.00 in
07:19 40.1 °F 31.4 °F 30.43 in ENE 2.0 mph 3.0 mph 71% 0.00 in
07:24 40.3 °F 31.6 °F 30.43 in Calm   5.0 mph 71% 0.00 in
07:29 40.4 °F 31.7 °F 30.43 in East 1.0 mph 5.0 mph 71% 0.00 in
07:34 40.6 °F 31.6 °F 30.43 in ESE 1.0 mph 3.0 mph 70% 0.00 in
07:39 40.7 °F 31.7 °F 30.43 in ESE 1.0 mph 3.0 mph 70% 0.00 in
07:44 40.8 °F 31.4 °F 30.43 in ESE 1.0 mph 3.0 mph 69% 0.00 in
07:49 41.0 °F 32.0 °F 30.43 in Calm   2.0 mph 70% 0.00 in
07:54 41.2 °F 31.8 °F 30.43 in ESE 1.0 mph 3.0 mph 69% 0.00 in
07:59 41.4 °F 32.0 °F 30.43 in ESE 1.0 mph 3.0 mph 69% 0.00 in
08:04 41.7 °F 32.3 °F 30.43 in ESE 1.0 mph 3.0 mph 69% 0.00 in
08:09 42.0 °F 32.2 °F 30.43 in SE 1.0 mph 3.0 mph 68% 0.00 in
08:14 42.2 °F 32.4 °F 30.43 in SE 2.0 mph 3.0 mph 68% 0.00 in
08:19 42.5 °F 32.3 °F 30.43 in SE 3.0 mph 4.0 mph 67% 0.00 in
08:24 42.9 °F 32.3 °F 30.43 in ESE 2.0 mph 4.0 mph 66% 0.00 in
08:29 43.3 °F 32.3 °F 30.43 in ESE 1.0 mph 4.0 mph 65% 0.00 in
08:34 43.8 °F 32.4 °F 30.43 in ESE 1.0 mph 3.0 mph 64% 0.00 in
08:39 44.5 °F 33.5 °F 30.43 in ESE 1.0 mph 3.0 mph 65% 0.00 in
08:44 45.0 °F 33.2 °F 30.43 in ESE 1.0 mph 3.0 mph 63% 0.00 in
08:49 45.3 °F 33.0 °F 30.43 in ESE 1.0 mph 3.0 mph 62% 0.00 in
08:54 46.5 °F 33.4 °F 30.43 in ESE 1.0 mph 3.0 mph 60% 0.00 in
09:04 49.1 °F 34.1 °F 30.43 in NE 3.0 mph 3.0 mph 56% 0.00 in
09:09 48.9 °F 32.0 °F 30.43 in SE 2.0 mph 4.0 mph 52% 0.00 in
09:19 50.4 °F 32.9 °F 30.43 in SE 1.0 mph 5.0 mph 51% 0.00 in
09:24 51.5 °F 33.0 °F 30.43 in East 1.0 mph 5.0 mph 49% 0.00 in
09:29 51.9 °F 32.3 °F 30.43 in ESE 2.0 mph 5.0 mph 47% 0.00 in
09:34 52.1 °F 31.4 °F 30.43 in ESE 3.0 mph 9.0 mph 45% 0.00 in
09:39 52.4 °F 30.5 °F 30.43 in ESE 4.0 mph 9.0 mph 43% 0.00 in
09:44 52.6 °F 31.8 °F 30.43 in ENE 3.0 mph 8.0 mph 45% 0.00 in
09:49 53.3 °F 31.9 °F 30.43 in Calm   6.0 mph 44% 0.00 in
09:54 53.8 °F 30.0 °F 30.43 in ENE 5.0 mph 9.0 mph 40% 0.00 in
09:59 53.6 °F 30.4 °F 30.43 in ESE 3.0 mph 9.0 mph 41% 0.00 in
10:04 54.1 °F 29.7 °F 30.43 in East 4.0 mph 11.0 mph 39% 0.00 in
10:09 54.6 °F 29.5 °F 30.43 in ENE 4.0 mph 11.0 mph 38% 0.00 in
10:14 54.8 °F 28.3 °F 30.43 in ENE 10.0 mph 10.0 mph 36% 0.00 in
10:19 55.0 °F 27.8 °F 30.43 in ESE 9.0 mph 10.0 mph 35% 0.00 in
10:24 55.5 °F 29.0 °F 30.43 in ENE 3.0 mph 10.0 mph 36% 0.00 in
10:29 55.6 °F 27.6 °F 30.43 in East 5.0 mph 13.0 mph 34% 0.00 in
10:39 55.8 °F 28.5 °F 30.43 in East 6.0 mph 9.0 mph 35% 0.00 in
10:44 56.7 °F 30.7 °F 30.42 in NE 6.0 mph 8.0 mph 37% 0.00 in
10:49 57.1 °F 29.7 °F 30.43 in NE 8.0 mph 9.0 mph 35% 0.00 in
10:54 56.6 °F 29.9 °F 30.43 in NE 6.0 mph 9.0 mph 36% 0.00 in
10:59 56.9 °F 29.5 °F 30.42 in ENE 5.0 mph 9.0 mph 35% 0.00 in
11:04 57.0 °F 31.0 °F 30.42 in ENE 4.0 mph 9.0 mph 37% 0.00 in
11:09 57.5 °F 30.7 °F 30.42 in ENE 4.0 mph 9.0 mph 36% 0.00 in
11:14 58.1 °F 30.6 °F 30.42 in ENE 4.0 mph 9.0 mph 35% 0.00 in
11:19 57.7 °F 29.5 °F 30.42 in ENE 4.0 mph 9.0 mph 34% 0.00 in
11:24 58.3 °F 31.4 °F 30.42 in NE 5.0 mph 11.0 mph 36% 0.00 in
11:34 58.2 °F 29.2 °F 30.42 in East 5.0 mph 9.0 mph 33% 0.00 in
11:39 58.4 °F 30.1 °F 30.42 in NE 5.0 mph 9.0 mph 34% 0.00 in
11:44 58.7 °F 30.4 °F 30.41 in SE 7.0 mph 9.0 mph 34% 0.00 in
11:49 59.6 °F 31.9 °F 30.41 in ESE 3.0 mph 8.0 mph 35% 0.00 in
11:54 60.2 °F 30.2 °F 30.41 in ENE 4.0 mph 10.0 mph 32% 0.00 in
11:59 60.3 °F 30.3 °F 30.41 in East 4.0 mph 10.0 mph 32% 0.00 in
12:04 60.3 °F 28.7 °F 30.41 in ENE 5.0 mph 12.0 mph 30% 0.00 in
12:09 60.8 °F 29.9 °F 30.41 in ENE 4.0 mph 12.0 mph 31% 0.00 in
12:14 60.6 °F 28.1 °F 30.40 in East 4.0 mph 9.0 mph 29% 0.00 in
12:19 60.5 °F 27.2 °F 30.40 in NE 8.0 mph 10.0 mph 28% 0.00 in
12:24 60.5 °F 28.9 °F 30.40 in NE 10.0 mph 10.0 mph 30% 0.00 in
12:29 60.9 °F 26.7 °F 30.40 in NE 4.0 mph 10.0 mph 27% 0.00 in
12:34 61.3 °F 27.9 °F 30.40 in ENE 5.0 mph 10.0 mph 28% 0.00 in
12:39 61.3 °F 28.7 °F 30.40 in ENE 4.0 mph 10.0 mph 29% 0.00 in
12:44 61.4 °F 27.1 °F 30.39 in NNE 5.0 mph 10.0 mph 27% 0.00 in
12:49 61.8 °F 29.2 °F 30.39 in ENE 8.0 mph 11.0 mph 29% 0.00 in
12:54 61.8 °F 27.4 °F 30.39 in NE 6.0 mph 12.0 mph 27% 0.00 in
12:59 61.7 °F 26.4 °F 30.39 in NNE 4.0 mph 12.0 mph 26% 0.00 in
13:04 61.9 °F 27.5 °F 30.39 in NE 5.0 mph 9.0 mph 27% 0.00 in
13:09 62.1 °F 28.6 °F 30.39 in East 9.0 mph 13.0 mph 28% 0.00 in
13:14 62.2 °F 27.8 °F 30.38 in East 2.0 mph 10.0 mph 27% 0.00 in
13:19 62.6 °F 30.7 °F 30.38 in NE 4.0 mph 9.0 mph 30% 0.00 in
13:24 62.7 °F 27.3 °F 30.38 in East 4.0 mph 9.0 mph 26% 0.00 in
13:29 63.0 °F 29.4 °F 30.38 in ENE 4.0 mph 11.0 mph 28% 0.00 in
13:34 63.1 °F 27.6 °F 30.38 in NE 5.0 mph 11.0 mph 26% 0.00 in
13:39 62.9 °F 31.8 °F 30.38 in ENE 5.0 mph 11.0 mph 31% 0.00 in
13:44 63.1 °F 27.6 °F 30.38 in ESE 8.0 mph 11.0 mph 26% 0.00 in
13:49 63.3 °F 32.1 °F 30.38 in ENE 5.0 mph 11.0 mph 31% 0.00 in
13:54 63.4 °F 30.6 °F 30.38 in NE 8.0 mph 10.0 mph 29% 0.00 in
13:59 62.9 °F 26.5 °F 30.38 in East 7.0 mph 14.0 mph 25% 0.00 in
14:04 62.2 °F 26.9 °F 30.37 in NE 7.0 mph 12.0 mph 26% 0.00 in
14:09 62.4 °F 27.9 °F 30.37 in North 4.0 mph 10.0 mph 27% 0.00 in
14:14 62.7 °F 28.2 °F 30.37 in ENE 3.0 mph 12.0 mph 27% 0.00 in
14:19 62.7 °F 28.2 °F 30.37 in South 3.0 mph 14.0 mph 27% 0.00 in
14:24 62.8 °F 28.3 °F 30.36 in East 4.0 mph 14.0 mph 27% 0.00 in
14:29 63.2 °F 27.7 °F 30.36 in ENE 5.0 mph 13.0 mph 26% 0.00 in
14:34 63.2 °F 27.7 °F 30.36 in NE 5.0 mph 13.0 mph 26% 0.00 in
14:39 62.9 °F 26.5 °F 30.36 in NE 5.0 mph 15.0 mph 25% 0.00 in
14:44 62.5 °F 28.0 °F 30.36 in NE 5.0 mph 15.0 mph 27% 0.00 in
14:49 63.1 °F 28.5 °F 30.36 in East 5.0 mph 9.0 mph 27% 0.00 in
14:54 63.2 °F 30.4 °F 30.35 in ENE 1.0 mph 11.0 mph 29% 0.00 in
14:59 63.0 °F 29.4 °F 30.35 in NE 4.0 mph 11.0 mph 28% 0.00 in
15:04 63.9 °F 31.8 °F 30.35 in NE 5.0 mph 10.0 mph 30% 0.00 in
15:09 63.4 °F 26.9 °F 30.35 in ENE 2.0 mph 9.0 mph 25% 0.00 in
15:14 63.9 °F 28.3 °F 30.34 in SSE 3.0 mph 10.0 mph 26% 0.00 in
15:19 64.0 °F 29.3 °F 30.34 in NE 3.0 mph 9.0 mph 27% 0.00 in
15:24 64.0 °F 26.4 °F 30.34 in Calm   6.0 mph 24% 0.00 in
15:29 63.8 °F 28.2 °F 30.33 in ENE 3.0 mph 9.0 mph 26% 0.00 in
15:34 64.1 °F 29.4 °F 30.33 in ENE 4.0 mph 11.0 mph 27% 0.00 in
15:39 64.0 °F 26.4 °F 30.33 in ENE 5.0 mph 11.0 mph 24% 0.00 in
15:44 63.9 °F 29.2 °F 30.33 in NE 4.0 mph 11.0 mph 27% 0.00 in
15:49 63.8 °F 28.2 °F 30.33 in NE 5.0 mph 13.0 mph 26% 0.00 in
15:54 64.0 °F 28.4 °F 30.33 in NE 6.0 mph 9.0 mph 26% 0.00 in
15:59 64.0 °F 28.4 °F 30.32 in NE 5.0 mph 12.0 mph 26% 0.00 in
16:04 63.7 °F 29.1 °F 30.32 in NE 5.0 mph 12.0 mph 27% 0.00 in
16:09 64.3 °F 31.3 °F 30.32 in NE 6.0 mph 10.0 mph 29% 0.00 in
16:14 64.7 °F 30.8 °F 30.32 in East 3.0 mph 8.0 mph 28% 0.00 in
16:19 65.2 °F 29.4 °F 30.32 in ENE 2.0 mph 9.0 mph 26% 0.00 in
16:24 65.4 °F 29.6 °F 30.32 in East 1.0 mph 8.0 mph 26% 0.00 in
16:29 65.5 °F 29.7 °F 30.31 in East 3.0 mph 10.0 mph 26% 0.00 in
16:34 65.5 °F 29.7 °F 30.31 in East 3.0 mph 10.0 mph 26% 0.00 in
16:39 65.6 °F 28.8 °F 30.31 in North 4.0 mph 8.0 mph 25% 0.00 in
16:44 65.6 °F 30.7 °F 30.31 in East 5.0 mph 8.0 mph 27% 0.00 in
16:49 65.5 °F 30.6 °F 30.31 in ESE 5.0 mph 7.0 mph 27% 0.00 in
16:54 65.5 °F 31.5 °F 30.31 in ENE 4.0 mph 8.0 mph 28% 0.00 in
16:59 65.4 °F 29.6 °F 30.31 in ENE 4.0 mph 10.0 mph 26% 0.00 in
17:04 65.2 °F 29.4 °F 30.31 in ENE 5.0 mph 10.0 mph 26% 0.00 in
17:09 65.2 °F 28.5 °F 30.31 in ENE 4.0 mph 9.0 mph 25% 0.00 in
17:14 65.1 °F 29.3 °F 30.31 in ENE 4.0 mph 8.0 mph 26% 0.00 in
17:19 65.2 °F 29.4 °F 30.31 in East 5.0 mph 10.0 mph 26% 0.00 in
17:24 65.0 °F 29.2 °F 30.31 in ENE 3.0 mph 10.0 mph 26% 0.00 in
17:29 65.0 °F 28.3 °F 30.31 in NE 9.0 mph 10.0 mph 25% 0.00 in
17:34 64.8 °F 29.1 °F 30.31 in ENE 4.0 mph 10.0 mph 26% 0.00 in
17:39 64.7 °F 29.0 °F 30.31 in ENE 3.0 mph 10.0 mph 26% 0.00 in
17:44 64.7 °F 28.0 °F 30.31 in East 6.0 mph 9.0 mph 25% 0.00 in
17:49 64.5 °F 28.8 °F 30.30 in ENE 8.0 mph 14.0 mph 26% 0.00 in
17:54 64.4 °F 29.7 °F 30.30 in ENE 5.0 mph 14.0 mph 27% 0.00 in
17:59 64.3 °F 28.7 °F 30.30 in ENE 5.0 mph 10.0 mph 26% 0.00 in
18:04 64.2 °F 29.5 °F 30.30 in NE 4.0 mph 10.0 mph 27% 0.00 in
18:09 63.9 °F 27.4 °F 30.30 in NE 2.0 mph 12.0 mph 25% 0.00 in
18:14 63.7 °F 29.1 °F 30.30 in NE 4.0 mph 10.0 mph 27% 0.00 in
18:19 63.5 °F 29.8 °F 30.30 in ENE 2.0 mph 8.0 mph 28% 0.00 in
18:24 63.4 °F 28.8 °F 30.30 in ENE 4.0 mph 10.0 mph 27% 0.00 in
18:29 63.2 °F 27.7 °F 30.30 in ENE 5.0 mph 10.0 mph 26% 0.00 in
18:34 63.0 °F 28.5 °F 30.30 in NE 6.0 mph 11.0 mph 27% 0.00 in
18:39 62.6 °F 32.3 °F 30.30 in NE 5.0 mph 11.0 mph 32% 0.00 in
18:44 62.2 °F 32.7 °F 30.30 in NE 7.0 mph 8.0 mph 33% 0.00 in
18:49 61.6 °F 32.2 °F 30.30 in NE 9.0 mph 10.0 mph 33% 0.00 in
18:54 61.1 °F 32.5 °F 30.30 in NE 5.0 mph 10.0 mph 34% 0.00 in
18:59 60.6 °F 32.8 °F 30.30 in NNE 6.0 mph 12.0 mph 35% 0.00 in
19:04 60.2 °F 32.4 °F 30.30 in NNE 6.0 mph 9.0 mph 35% 0.00 in
19:09 59.7 °F 32.7 °F 30.30 in NE 5.0 mph 9.0 mph 36% 0.00 in
19:14 59.4 °F 33.1 °F 30.30 in NE 13.0 mph 13.0 mph 37% 0.00 in
19:19 59.2 °F 32.9 °F 30.30 in NNE 5.0 mph 12.0 mph 37% 0.00 in
19:24 58.8 °F 33.2 °F 30.30 in NE 6.0 mph 13.0 mph 38% 0.00 in
19:29 58.6 °F 33.0 °F 30.30 in NE 6.0 mph 13.0 mph 38% 0.00 in
19:34 58.3 °F 33.4 °F 30.30 in NE 6.0 mph 11.0 mph 39% 0.00 in
19:39 58.1 °F 32.6 °F 30.30 in NE 5.0 mph 12.0 mph 38% 0.00 in
19:44 57.8 °F 33.0 °F 30.30 in NE 5.0 mph 12.0 mph 39% 0.00 in
19:49 57.6 °F 32.8 °F 30.30 in NNE 6.0 mph 12.0 mph 39% 0.00 in
19:54 57.4 °F 32.6 °F 30.30 in NE 7.0 mph 13.0 mph 39% 0.00 in
20:04 56.9 °F 32.2 °F 30.29 in ENE 9.0 mph 11.0 mph 39% 0.00 in
20:09 56.7 °F 32.0 °F 30.30 in NE 8.0 mph 10.0 mph 39% 0.00 in
20:14 56.4 °F 32.4 °F 30.30 in NE 5.0 mph 12.0 mph 40% 0.00 in
20:19 56.2 °F 32.2 °F 30.30 in ENE 8.0 mph 10.0 mph 40% 0.00 in
20:24 55.9 °F 31.9 °F 30.30 in NE 6.0 mph 10.0 mph 40% 0.00 in
20:29 55.7 °F 32.3 °F 30.30 in NE 6.0 mph 10.0 mph 41% 0.00 in
20:34 55.3 °F 32.0 °F 30.30 in NE 6.0 mph 10.0 mph 41% 0.00 in
20:39 55.1 °F 31.8 °F 30.30 in NE 6.0 mph 10.0 mph 41% 0.00 in
20:44 54.9 °F 32.2 °F 30.30 in NE 5.0 mph 10.0 mph 42% 0.00 in
20:49 54.7 °F 31.4 °F 30.30 in NE 6.0 mph 12.0 mph 41% 0.00 in
20:54 54.4 °F 31.8 °F 30.30 in NE 5.0 mph 12.0 mph 42% 0.00 in
20:59 54.2 °F 31.6 °F 30.30 in NE 2.0 mph 9.0 mph 42% 0.00 in
21:04 54.0 °F 32.0 °F 30.30 in NE 4.0 mph 9.0 mph 43% 0.00 in
21:09 53.8 °F 31.2 °F 30.30 in NE 3.0 mph 8.0 mph 42% 0.00 in
21:14 53.5 °F 31.0 °F 30.30 in NE 5.0 mph 8.0 mph 42% 0.00 in
21:19 53.4 °F 30.3 °F 30.30 in NE 6.0 mph 9.0 mph 41% 0.00 in
21:24 53.1 °F 30.0 °F 30.30 in ENE 4.0 mph 9.0 mph 41% 0.00 in
21:29 53.0 °F 29.9 °F 30.30 in ENE 4.0 mph 9.0 mph 41% 0.00 in
21:34 52.8 °F 29.7 °F 30.30 in ENE 4.0 mph 9.0 mph 41% 0.00 in
21:39 52.5 °F 29.5 °F 30.30 in ENE 4.0 mph 9.0 mph 41% 0.00 in
21:44 52.4 °F 29.4 °F 30.30 in ENE 4.0 mph 9.0 mph 41% 0.00 in
21:49 52.2 °F 29.8 °F 30.30 in East 2.0 mph 7.0 mph 42% 0.00 in
21:54 51.9 °F 29.5 °F 30.30 in NE 3.0 mph 9.0 mph 42% 0.00 in
21:59 51.6 °F 28.6 °F 30.30 in ENE 2.0 mph 8.0 mph 41% 0.00 in
22:04 51.5 °F 29.1 °F 30.30 in NE 3.0 mph 8.0 mph 42% 0.00 in
22:09 51.3 °F 29.0 °F 30.30 in NE 3.0 mph 8.0 mph 42% 0.00 in
22:14 51.1 °F 28.2 °F 30.30 in East 5.0 mph 8.0 mph 41% 0.00 in
22:24 50.8 °F 27.9 °F 30.30 in ENE 4.0 mph 9.0 mph 41% 0.00 in
22:29 50.7 °F 28.4 °F 30.30 in ENE 4.0 mph 9.0 mph 42% 0.00 in
22:34 50.5 °F 28.2 °F 30.30 in ENE 3.0 mph 9.0 mph 42% 0.00 in
22:39 50.3 °F 28.1 °F 30.30 in ENE 3.0 mph 8.0 mph 42% 0.00 in
22:44 50.1 °F 27.9 °F 30.30 in ENE 5.0 mph 9.0 mph 42% 0.00 in
22:49 50.0 °F 27.8 °F 30.30 in ENE 3.0 mph 9.0 mph 42% 0.00 in
22:54 49.9 °F 28.3 °F 30.30 in ENE 4.0 mph 9.0 mph 43% 0.00 in
22:59 49.7 °F 28.1 °F 30.29 in ENE 3.0 mph 9.0 mph 43% 0.00 in
23:04 49.6 °F 28.6 °F 30.29 in ENE 3.0 mph 8.0 mph 44% 0.00 in
23:09 49.4 °F 28.4 °F 30.29 in ENE 3.0 mph 6.0 mph 44% 0.00 in
23:14 49.2 °F 28.2 °F 30.29 in NE 2.0 mph 8.0 mph 44% 0.00 in
23:19 49.1 °F 28.7 °F 30.29 in ENE 3.0 mph 8.0 mph 45% 0.00 in
23:24 49.1 °F 28.7 °F 30.29 in ENE 3.0 mph 7.0 mph 45% 0.00 in
23:29 49.0 °F 28.6 °F 30.28 in NE 2.0 mph 4.0 mph 45% 0.00 in
23:34 48.8 °F 28.4 °F 30.28 in East 5.0 mph 6.0 mph 45% 0.00 in
23:39 48.7 °F 28.3 °F 30.28 in East 5.0 mph 5.0 mph 45% 0.00 in
23:44 48.5 °F 28.6 °F 30.28 in ENE 2.0 mph 7.0 mph 46% 0.00 in
23:49 48.5 °F 28.6 °F 30.28 in ENE 3.0 mph 7.0 mph 46% 0.00 in
23:54 48.3 °F 28.5 °F 30.28 in ENE 3.0 mph 7.0 mph 46% 0.00 in
23:59 48.2 °F 28.9 °F 30.28 in ENE 2.0 mph 7.0 mph 47% 0.00 in
Buffalo, New York, USA
Compliments of Weather Underground - 2.25 mb